createdAt,value
2022-08-25T00:00:20.418Z,22.46
2022-08-25T00:02:55.725Z,22.39
2022-08-25T00:05:27.760Z,22.38
2022-08-25T00:07:59.296Z,22.29
2022-08-25T00:10:27.060Z,22.26
2022-08-25T00:12:54.666Z,22.13
2022-08-25T00:15:58.829Z,22.25
2022-08-25T00:18:46.195Z,22.10
2022-08-25T00:21:15.309Z,22.09
2022-08-25T00:23:45.717Z,22.05
2022-08-25T00:26:15.638Z,21.94
2022-08-25T00:28:44.956Z,22.00
2022-08-25T00:31:13.504Z,21.90
2022-08-25T00:33:42.164Z,21.84
2022-08-25T00:36:12.385Z,21.83
2022-08-25T00:38:40.283Z,21.85
2022-08-25T00:41:11.401Z,21.75
2022-08-25T00:43:47.519Z,21.73
2022-08-25T00:46:18.591Z,21.72
2022-08-25T00:48:53.027Z,21.65
2022-08-25T00:51:26.952Z,21.55
2022-08-25T00:53:54.954Z,21.53
2022-08-25T00:56:24.863Z,21.58
2022-08-25T00:58:52.775Z,21.60
2022-08-25T01:01:21.043Z,21.53
2022-08-25T01:03:48.991Z,21.46
2022-08-25T01:06:16.707Z,21.49
2022-08-25T01:08:44.714Z,21.39
2022-08-25T01:11:13.139Z,21.41
2022-08-25T01:13:46.834Z,21.40
2022-08-25T01:16:16.799Z,21.40
2022-08-25T01:18:48.371Z,21.35
2022-08-25T01:21:20.281Z,21.41
2022-08-25T01:23:49.582Z,21.25
2022-08-25T01:26:21.140Z,21.21
2022-08-25T01:29:17.302Z,21.17
2022-08-25T01:31:45.128Z,21.12
2022-08-25T01:34:13.342Z,21.11
2022-08-25T01:36:43.499Z,21.14
2022-08-25T01:39:12.149Z,21.08
2022-08-25T01:41:47.057Z,21.09
2022-08-25T01:44:17.298Z,21.11
2022-08-25T01:46:45.179Z,21.12
2022-08-25T01:49:12.896Z,21.12
2022-08-25T01:51:44.708Z,21.06
2022-08-25T01:54:21.313Z,21.06
2022-08-25T01:56:53.340Z,20.97
2022-08-25T01:59:28.213Z,20.93
2022-08-25T02:02:11.666Z,20.97
2022-08-25T02:05:01.559Z,20.87
2022-08-25T02:07:37.771Z,20.90
2022-08-25T02:10:10.194Z,20.90
2022-08-25T02:12:49.701Z,20.87
2022-08-25T02:15:23.915Z,20.82
2022-08-25T02:17:52.955Z,20.80
2022-08-25T02:20:27.646Z,20.66
2022-08-25T02:23:01.337Z,20.59
2022-08-25T02:25:29.242Z,20.65
2022-08-25T02:27:59.102Z,20.62
2022-08-25T02:30:28.518Z,20.49
2022-08-25T02:32:58.581Z,20.50
2022-08-25T02:35:26.425Z,20.53
2022-08-25T02:38:02.205Z,20.36
2022-08-25T02:40:33.718Z,20.41
2022-08-25T02:43:06.749Z,20.34
2022-08-25T02:45:40.015Z,20.25
2022-08-25T02:48:11.347Z,20.19
2022-08-25T02:50:47.565Z,20.17
2022-08-25T02:53:20.170Z,20.21
2022-08-25T02:56:01.890Z,20.22
2022-08-25T02:58:49.801Z,20.19
2022-08-25T03:01:22.206Z,20.27
2022-08-25T03:03:56.329Z,20.31
2022-08-25T03:06:24.926Z,20.28
2022-08-25T03:08:54.338Z,20.18
2022-08-25T03:11:28.148Z,20.14
2022-08-25T03:13:58.577Z,20.07
2022-08-25T03:16:34.421Z,20.10
2022-08-25T03:19:26.582Z,20.02
2022-08-25T03:21:56.307Z,19.97
2022-08-25T03:24:24.106Z,19.99
2022-08-25T03:26:55.831Z,19.93
2022-08-25T03:29:24.338Z,20.00
2022-08-25T03:31:53.040Z,19.97
2022-08-25T03:34:21.661Z,20.01
2022-08-25T03:36:53.392Z,20.01
2022-08-25T03:39:23.444Z,20.00
2022-08-25T03:41:53.581Z,19.96
2022-08-25T03:44:22.402Z,19.95
2022-08-25T03:46:52.610Z,19.86
2022-08-25T03:49:23.719Z,19.88
2022-08-25T03:51:53.843Z,19.91
2022-08-25T03:54:23.635Z,19.86
2022-08-25T03:56:51.570Z,19.87
2022-08-25T03:59:20.769Z,19.79
2022-08-25T04:01:52.778Z,19.72
2022-08-25T04:04:22.691Z,19.64
2022-08-25T04:06:50.801Z,19.66
2022-08-25T04:09:18.609Z,19.68
2022-08-25T04:11:46.518Z,19.63
2022-08-25T04:14:16.959Z,19.61
2022-08-25T04:16:46.670Z,19.60
2022-08-25T04:19:14.756Z,19.67
2022-08-25T04:21:43.040Z,19.58
2022-08-25T04:24:12.711Z,19.64
2022-08-25T04:26:42.693Z,19.68
2022-08-25T04:29:12.188Z,19.57
2022-08-25T04:31:41.700Z,19.58
2022-08-25T04:34:28.500Z,19.49
2022-08-25T04:36:57.921Z,19.45
2022-08-25T04:39:25.441Z,19.40
2022-08-25T04:41:53.344Z,19.40
2022-08-25T04:44:21.240Z,19.44
2022-08-25T04:46:49.665Z,19.41
2022-08-25T04:49:18.878Z,19.42
2022-08-25T04:51:46.993Z,19.43
2022-08-25T04:54:21.509Z,19.48
2022-08-25T04:56:50.244Z,19.51
2022-08-25T04:59:22.521Z,19.48
2022-08-25T05:01:52.319Z,19.60
2022-08-25T05:04:27.881Z,19.63
2022-08-25T05:06:56.395Z,19.72
2022-08-25T05:09:25.087Z,19.67
2022-08-25T05:11:52.979Z,19.69
2022-08-25T05:14:23.199Z,19.75
2022-08-25T05:16:55.399Z,19.74
2022-08-25T05:19:26.207Z,19.77
2022-08-25T05:21:54.132Z,19.66
2022-08-25T05:25:46.142Z,19.69
2022-08-25T05:28:15.453Z,19.76
2022-08-25T05:30:44.987Z,19.76
2022-08-25T05:33:13.586Z,19.77
2022-08-25T05:35:41.422Z,19.80
2022-08-25T05:38:15.328Z,19.76
2022-08-25T05:40:43.515Z,19.87
2022-08-25T05:43:12.311Z,19.88
2022-08-25T05:45:41.568Z,19.86
2022-08-25T05:48:09.344Z,19.95
2022-08-25T05:50:36.971Z,20.03
2022-08-25T05:53:04.961Z,20.08
2022-08-25T05:55:32.701Z,20.14
2022-08-25T05:58:00.803Z,20.15
2022-08-25T06:00:28.514Z,20.22
2022-08-25T06:02:57.014Z,20.27
2022-08-25T06:05:24.835Z,20.35
2022-08-25T06:07:53.134Z,20.51
2022-08-25T06:10:22.034Z,20.55
2022-08-25T06:12:50.254Z,20.65
2022-08-25T06:15:21.257Z,20.73
2022-08-25T06:17:49.874Z,20.94
2022-08-25T06:20:22.165Z,21.00
2022-08-25T06:22:54.101Z,21.11
2022-08-25T06:25:24.201Z,21.15
2022-08-25T06:27:52.313Z,21.18
2022-08-25T06:30:24.623Z,21.37
2022-08-25T06:32:56.935Z,21.49
2022-08-25T06:35:26.054Z,21.61
2022-08-25T06:37:54.273Z,21.70
2022-08-25T06:40:23.008Z,21.82
2022-08-25T06:42:50.676Z,21.90
2022-08-25T06:45:18.897Z,22.05
2022-08-25T06:47:46.605Z,22.14
2022-08-25T06:50:14.137Z,22.22
2022-08-25T06:52:43.329Z,22.39
2022-08-25T06:55:12.149Z,22.64
2022-08-25T06:57:39.845Z,22.69
2022-08-25T07:00:08.057Z,22.71
2022-08-25T07:02:35.810Z,22.87
2022-08-25T07:05:04.703Z,22.98
2022-08-25T07:07:43.729Z,23.11
2022-08-25T07:10:13.901Z,23.24
2022-08-25T07:12:47.119Z,23.31
2022-08-25T07:15:20.550Z,23.41
2022-08-25T07:17:49.331Z,23.47
2022-08-25T07:20:19.384Z,23.47
2022-08-25T07:22:47.462Z,23.72
2022-08-25T07:25:17.838Z,23.96
2022-08-25T07:27:46.177Z,24.08
2022-08-25T07:30:14.186Z,24.05
2022-08-25T07:35:37.491Z,25.55
2022-08-25T07:38:07.034Z,27.13
2022-08-25T07:40:42.788Z,27.96
2022-08-25T07:43:10.646Z,29.13
2022-08-25T07:45:41.143Z,30.47
2022-08-25T07:48:19.779Z,32.09
2022-08-25T07:50:49.379Z,33.53
2022-08-25T07:53:18.101Z,34.77
2022-08-25T07:55:47.373Z,35.13
2022-08-25T07:58:15.309Z,36.04
2022-08-25T08:00:43.315Z,35.65
2022-08-25T08:03:19.953Z,35.56
2022-08-25T08:05:59.745Z,35.87
2022-08-25T08:08:27.862Z,36.46
2022-08-25T08:11:05.399Z,36.10
2022-08-25T08:13:36.681Z,36.79
2022-08-25T08:16:10.288Z,36.39
2022-08-25T08:18:39.497Z,36.80
2022-08-25T08:21:12.710Z,37.64
2022-08-25T08:23:40.615Z,38.07
2022-08-25T08:26:10.241Z,38.72
2022-08-25T08:28:38.156Z,39.59
2022-08-25T08:31:06.070Z,39.63
2022-08-25T08:33:40.862Z,40.39
2022-08-25T08:36:12.449Z,40.83
2022-08-25T08:38:42.687Z,39.89
2022-08-25T08:42:09.626Z,40.17
2022-08-25T08:44:44.111Z,42.25
2022-08-25T08:47:19.767Z,42.80
2022-08-25T08:49:58.358Z,42.12
2022-08-25T08:52:36.646Z,43.40
2022-08-25T08:55:11.459Z,42.94
2022-08-25T09:00:20.074Z,44.49
2022-08-25T09:02:52.426Z,43.51
2022-08-25T09:05:22.519Z,44.39
2022-08-25T09:07:56.083Z,44.18
2022-08-25T09:10:27.286Z,45.01
2022-08-25T09:13:05.853Z,45.29
2022-08-25T09:16:07.962Z,45.29
2022-08-25T09:18:50.952Z,46.16
2022-08-25T09:21:28.699Z,44.46
2022-08-25T09:24:16.583Z,45.06
2022-08-25T09:26:54.791Z,46.36
2022-08-25T09:29:30.700Z,46.69
2022-08-25T09:32:01.312Z,47.31
2022-08-25T09:34:35.027Z,45.74
2022-08-25T09:37:03.037Z,45.30
2022-08-25T09:39:30.647Z,45.85
2022-08-25T09:42:00.964Z,43.55
2022-08-25T09:44:33.710Z,45.10
2022-08-25T09:47:05.190Z,45.88
2022-08-25T09:49:37.619Z,46.38
2022-08-25T09:52:34.707Z,43.95
2022-08-25T09:55:28.818Z,42.81
2022-08-25T09:58:00.629Z,43.90
2022-08-25T10:00:33.436Z,45.20
2022-08-25T10:03:22.447Z,46.40
2022-08-25T10:06:02.759Z,46.62
2022-08-25T10:08:35.270Z,47.26
2022-08-25T10:11:08.897Z,43.98
2022-08-25T10:13:40.999Z,46.32
2022-08-25T10:16:20.130Z,44.94
2022-08-25T10:19:03.416Z,42.32
2022-08-25T10:21:31.410Z,43.72
2022-08-25T10:24:01.667Z,47.10
2022-08-25T10:26:35.445Z,46.03
2022-08-25T10:29:15.763Z,46.51
2022-08-25T10:31:51.996Z,44.88
2022-08-25T10:34:36.014Z,46.26
2022-08-25T10:37:16.330Z,45.99
2022-08-25T10:40:00.989Z,46.95
2022-08-25T10:42:37.117Z,46.60
2022-08-25T10:45:32.739Z,46.77
2022-08-25T10:48:49.751Z,45.50
2022-08-25T10:51:52.578Z,48.15
2022-08-25T10:54:32.878Z,48.01
2022-08-25T10:57:13.685Z,47.00
2022-08-25T10:59:52.093Z,48.86
2022-08-25T11:03:01.061Z,49.45
2022-08-25T11:05:33.287Z,47.18
2022-08-25T11:08:09.429Z,48.43
2022-08-25T11:10:46.139Z,47.86
2022-08-25T11:13:23.551Z,49.36
2022-08-25T11:16:16.565Z,45.85
2022-08-25T11:18:55.305Z,46.48
2022-08-25T11:21:28.230Z,48.43
2022-08-25T11:24:05.612Z,49.21
2022-08-25T11:26:38.215Z,50.88
2022-08-25T11:29:14.322Z,51.62
2022-08-25T11:31:52.153Z,48.70
2022-08-25T11:34:22.743Z,48.78
2022-08-25T11:36:55.968Z,48.11
2022-08-25T11:39:40.464Z,50.07
2022-08-25T11:42:22.060Z,50.67
2022-08-25T11:45:01.703Z,51.78
2022-08-25T11:47:41.298Z,47.95
2022-08-25T11:50:25.819Z,45.77
2022-08-25T11:52:56.261Z,45.42
2022-08-25T11:55:33.534Z,47.17
2022-08-25T11:58:32.538Z,48.42
2022-08-25T12:01:02.044Z,49.18
2022-08-25T12:03:54.277Z,46.66
2022-08-25T12:06:26.781Z,47.80
2022-08-25T12:09:12.698Z,49.94
2022-08-25T12:11:47.833Z,51.97
2022-08-25T12:14:35.118Z,53.26
2022-08-25T12:17:17.431Z,54.12
2022-08-25T12:19:52.239Z,54.53
2022-08-25T12:22:51.492Z,54.48
2022-08-25T12:25:38.970Z,52.69
2022-08-25T12:28:20.185Z,50.22
2022-08-25T12:30:57.969Z,49.59
2022-08-25T12:33:42.801Z,50.84
2022-08-25T12:36:26.639Z,50.87
2022-08-25T12:38:54.788Z,49.82
2022-08-25T12:41:25.271Z,50.03
2022-08-25T12:44:09.845Z,49.97
2022-08-25T12:46:40.463Z,48.57
2022-08-25T12:49:32.175Z,44.95
2022-08-25T12:52:03.546Z,46.03
2022-08-25T12:54:43.496Z,48.10
2022-08-25T12:57:40.286Z,49.51
2022-08-25T13:00:18.390Z,50.81
2022-08-25T13:03:28.424Z,48.67
2022-08-25T13:06:32.947Z,47.89
2022-08-25T13:09:26.656Z,48.69
2022-08-25T13:12:01.770Z,50.55
2022-08-25T13:14:38.481Z,50.41
2022-08-25T13:17:09.568Z,48.69
2022-08-25T13:19:38.324Z,48.58
2022-08-25T13:22:16.423Z,47.01
2022-08-25T13:24:47.560Z,49.18
2022-08-25T13:27:23.099Z,49.31
2022-08-25T13:29:53.743Z,48.81
2022-08-25T13:32:31.939Z,48.32
2022-08-25T13:35:15.466Z,49.80
2022-08-25T13:37:45.578Z,50.75
2022-08-25T13:40:17.569Z,51.14
2022-08-25T13:42:54.448Z,50.33
2022-08-25T13:45:26.732Z,50.69
2022-08-25T13:47:56.310Z,52.01
2022-08-25T13:50:33.807Z,49.42
2022-08-25T13:53:03.743Z,50.26
2022-08-25T13:55:51.216Z,49.83
2022-08-25T13:58:24.203Z,49.72
2022-08-25T14:01:22.331Z,47.32
2022-08-25T14:04:18.695Z,46.36
2022-08-25T14:06:48.026Z,46.13
2022-08-25T14:09:18.220Z,45.97
2022-08-25T14:11:58.253Z,45.25
2022-08-25T14:14:34.949Z,46.83
2022-08-25T14:17:21.857Z,46.98
2022-08-25T14:19:56.363Z,46.68
2022-08-25T14:22:24.370Z,45.53
2022-08-25T14:24:54.076Z,44.80
2022-08-25T14:27:21.902Z,44.75
2022-08-25T14:29:52.818Z,45.15
2022-08-25T14:32:20.714Z,44.98
2022-08-25T14:34:48.628Z,46.01
2022-08-25T14:37:20.862Z,47.18
2022-08-25T14:39:54.621Z,46.41
2022-08-25T14:42:22.669Z,41.72
2022-08-25T14:44:53.277Z,41.49
2022-08-25T14:47:21.282Z,42.09
2022-08-25T14:49:51.892Z,42.85
2022-08-25T14:52:26.601Z,40.97
2022-08-25T14:54:54.411Z,39.39
2022-08-25T14:57:22.126Z,37.97
2022-08-25T14:59:51.836Z,37.08
2022-08-25T15:02:22.767Z,36.51
2022-08-25T15:05:00.455Z,36.37
2022-08-25T15:07:49.977Z,36.49
2022-08-25T15:10:17.877Z,36.40
2022-08-25T15:12:51.115Z,35.88
2022-08-25T15:15:21.778Z,35.82
2022-08-25T15:17:50.457Z,35.35
2022-08-25T15:20:18.322Z,34.74
2022-08-25T15:22:48.672Z,34.58
2022-08-25T15:25:16.754Z,33.94
2022-08-25T15:27:45.452Z,34.26
2022-08-25T15:30:14.871Z,34.26
2022-08-25T15:32:42.979Z,34.39
2022-08-25T15:35:11.194Z,34.49
2022-08-25T15:37:42.994Z,34.28
2022-08-25T15:40:12.649Z,34.24
2022-08-25T15:42:42.947Z,33.97
2022-08-25T15:45:14.360Z,33.84
2022-08-25T15:47:42.247Z,33.70
2022-08-25T15:50:14.566Z,33.62
2022-08-25T15:52:47.569Z,33.36
2022-08-25T15:55:19.808Z,33.22
2022-08-25T15:57:47.999Z,33.21
2022-08-25T16:00:18.898Z,33.09
2022-08-25T16:02:46.947Z,32.98
2022-08-25T16:05:16.252Z,33.07
2022-08-25T16:07:45.916Z,33.26
2022-08-25T16:10:14.137Z,33.23
2022-08-25T16:12:43.153Z,33.23
2022-08-25T16:15:12.189Z,33.22
2022-08-25T16:17:40.574Z,33.06
2022-08-25T16:20:13.782Z,32.98
2022-08-25T16:22:41.832Z,32.76
2022-08-25T16:25:11.508Z,32.62
2022-08-25T16:27:39.287Z,32.57
2022-08-25T16:30:11.755Z,32.41
2022-08-25T16:32:41.733Z,32.23
2022-08-25T16:35:11.223Z,32.22
2022-08-25T16:37:39.054Z,32.11
2022-08-25T16:40:10.326Z,32.09
2022-08-25T16:42:38.376Z,31.91
2022-08-25T16:45:08.487Z,31.89
2022-08-25T16:47:38.255Z,31.72
2022-08-25T16:50:10.907Z,31.67
2022-08-25T16:52:56.526Z,31.72
2022-08-25T16:55:26.632Z,31.62
2022-08-25T16:57:54.730Z,31.58
2022-08-25T17:00:28.227Z,31.49
2022-08-25T17:02:59.187Z,31.37
2022-08-25T17:05:28.276Z,31.25
2022-08-25T17:08:13.888Z,31.13
2022-08-25T17:10:43.913Z,30.87
2022-08-25T17:13:12.786Z,30.84
2022-08-25T17:15:46.764Z,30.72
2022-08-25T17:18:14.865Z,30.62
2022-08-25T17:20:44.555Z,30.63
2022-08-25T17:23:13.161Z,30.55
2022-08-25T17:25:42.924Z,30.55
2022-08-25T17:28:11.915Z,30.43
2022-08-25T17:30:40.189Z,30.26
2022-08-25T17:33:09.278Z,30.21
2022-08-25T17:35:40.309Z,30.15
2022-08-25T17:38:08.715Z,30.03
2022-08-25T17:40:37.401Z,29.91
2022-08-25T17:43:05.848Z,29.82
2022-08-25T17:45:37.363Z,29.76
2022-08-25T17:48:13.983Z,29.69
2022-08-25T17:50:43.171Z,29.61
2022-08-25T17:53:11.491Z,29.46
2022-08-25T17:55:42.314Z,29.26
2022-08-25T17:58:13.304Z,29.13
2022-08-25T18:00:43.745Z,29.08
2022-08-25T18:03:12.026Z,28.99
2022-08-25T18:05:39.830Z,28.86
2022-08-25T18:08:10.599Z,28.71
2022-08-25T18:10:39.302Z,28.59
2022-08-25T18:13:07.068Z,28.53
2022-08-25T18:15:39.079Z,28.43
2022-08-25T18:18:10.978Z,28.13
2022-08-25T18:20:41.105Z,28.10
2022-08-25T18:23:12.813Z,28.04
2022-08-25T18:25:41.738Z,27.80
2022-08-25T18:28:09.867Z,27.75
2022-08-25T18:30:37.832Z,27.72
2022-08-25T18:33:06.209Z,27.63
2022-08-25T18:35:33.973Z,27.61
2022-08-25T18:38:19.079Z,27.50
2022-08-25T18:44:27.913Z,27.24
2022-08-25T18:46:56.589Z,27.20
2022-08-25T18:49:26.699Z,27.11
2022-08-25T18:51:56.546Z,27.07
2022-08-25T18:54:24.262Z,26.97
2022-08-25T18:56:54.614Z,26.94
2022-08-25T18:59:23.677Z,26.89
2022-08-25T19:01:52.724Z,26.88
2022-08-25T19:04:20.801Z,26.81
2022-08-25T19:06:56.041Z,26.80
2022-08-25T19:09:23.820Z,26.68
2022-08-25T19:11:54.659Z,26.55
2022-08-25T19:14:22.553Z,26.39
2022-08-25T19:16:51.752Z,26.33
2022-08-25T19:19:21.165Z,26.26
2022-08-25T19:21:48.874Z,26.22
2022-08-25T19:24:19.289Z,26.14
2022-08-25T19:26:49.593Z,26.18
2022-08-25T19:29:21.906Z,26.32
2022-08-25T19:31:50.417Z,26.39
2022-08-25T19:34:25.333Z,26.45
2022-08-25T19:36:57.647Z,26.35
2022-08-25T19:39:26.359Z,26.26
2022-08-25T19:41:54.271Z,26.27
2022-08-25T19:44:24.175Z,26.31
2022-08-25T19:46:51.982Z,26.27
2022-08-25T19:49:23.299Z,26.20
2022-08-25T19:51:53.488Z,26.22
2022-08-25T19:54:24.649Z,26.27
2022-08-25T19:56:54.693Z,26.31
2022-08-25T19:59:26.820Z,26.18
2022-08-25T20:02:10.853Z,26.05
2022-08-25T20:04:38.762Z,26.13
2022-08-25T20:07:07.771Z,26.05
2022-08-25T20:09:40.916Z,26.01
2022-08-25T20:12:11.684Z,26.00
2022-08-25T20:14:41.430Z,26.01
2022-08-25T20:17:23.987Z,26.00
2022-08-25T20:19:55.438Z,25.93
2022-08-25T20:22:26.224Z,25.84
2022-08-25T20:24:56.115Z,25.73
2022-08-25T20:27:27.966Z,25.74
2022-08-25T20:29:57.075Z,25.72
2022-08-25T20:32:25.184Z,25.65
2022-08-25T20:34:55.832Z,25.49
2022-08-25T20:37:24.021Z,25.53
2022-08-25T20:39:52.568Z,25.50
2022-08-25T20:42:20.527Z,25.47
2022-08-25T20:44:48.441Z,25.35
2022-08-25T20:47:20.516Z,25.36
2022-08-25T20:49:48.934Z,25.30
2022-08-25T20:52:18.578Z,25.24
2022-08-25T20:54:49.481Z,25.18
2022-08-25T20:57:24.313Z,25.27
2022-08-25T20:59:54.410Z,25.14
2022-08-25T21:02:24.150Z,25.12
2022-08-25T21:04:52.424Z,25.03
2022-08-25T21:07:20.474Z,24.97
2022-08-25T21:09:48.945Z,24.93
2022-08-25T21:12:17.056Z,24.92
2022-08-25T21:14:44.872Z,24.81
2022-08-25T21:17:12.910Z,24.77
2022-08-25T21:19:43.068Z,24.73
2022-08-25T21:22:11.032Z,24.66
2022-08-25T21:24:39.409Z,24.57
2022-08-25T21:27:07.125Z,24.58
2022-08-25T21:29:35.231Z,24.39
2022-08-25T21:32:03.974Z,24.31
2022-08-25T21:34:32.147Z,24.30
2022-08-25T21:37:01.248Z,24.23
2022-08-25T21:39:31.925Z,24.17
2022-08-25T21:42:00.563Z,24.27
2022-08-25T21:44:29.801Z,24.11
2022-08-25T21:46:57.707Z,24.04
2022-08-25T21:49:26.158Z,23.97
2022-08-25T21:52:04.358Z,23.95
2022-08-25T21:54:33.541Z,23.92
2022-08-25T21:57:03.626Z,23.90
2022-08-25T21:59:33.461Z,23.79
2022-08-25T22:02:03.236Z,23.66
2022-08-25T22:04:32.203Z,23.69
2022-08-25T22:07:00.204Z,23.61
2022-08-25T22:09:28.617Z,23.60
2022-08-25T22:11:58.718Z,23.59
2022-08-25T22:14:27.926Z,23.45
2022-08-25T22:16:56.019Z,23.39
2022-08-25T22:19:24.665Z,23.36
2022-08-25T22:21:53.158Z,23.38
2022-08-25T22:24:22.085Z,23.31
2022-08-25T22:26:50.187Z,23.29
2022-08-25T22:29:24.680Z,23.22
2022-08-25T22:31:53.503Z,23.09
2022-08-25T22:34:31.622Z,23.02
2022-08-25T22:37:00.127Z,22.99
2022-08-25T22:39:28.255Z,23.14
2022-08-25T22:41:56.297Z,22.93
2022-08-25T22:44:25.668Z,23.04
2022-08-25T22:46:54.069Z,22.90
2022-08-25T22:49:22.490Z,22.78
2022-08-25T22:51:50.886Z,22.76
2022-08-25T22:54:18.900Z,22.78
2022-08-25T22:56:46.520Z,22.68
2022-08-25T22:59:15.369Z,22.63
2022-08-25T23:01:46.143Z,22.58
2022-08-25T23:04:14.848Z,22.55
2022-08-25T23:06:45.667Z,22.54
2022-08-25T23:09:14.972Z,22.50
2022-08-25T23:11:43.277Z,22.35
2022-08-25T23:14:12.189Z,22.41
2022-08-25T23:16:42.093Z,22.46
2022-08-25T23:19:13.735Z,22.60
2022-08-25T23:22:00.137Z,22.46
2022-08-25T23:24:29.744Z,22.36
2022-08-25T23:26:58.851Z,22.30
2022-08-25T23:29:27.535Z,22.22
2022-08-25T23:31:55.496Z,22.16
2022-08-25T23:34:25.700Z,22.20
2022-08-25T23:36:54.185Z,22.16
2022-08-25T23:39:22.181Z,22.11
2022-08-25T23:41:50.609Z,22.06
2022-08-25T23:44:18.810Z,21.95
2022-08-25T23:46:47.671Z,21.90
2022-08-25T23:49:18.672Z,21.93
2022-08-25T23:51:50.113Z,21.83
2022-08-25T23:54:21.477Z,21.74
2022-08-25T23:56:51.686Z,21.74
2022-08-25T23:59:20.482Z,21.69
